Skip Navigation Links
NOAA logo - Click to go to the NOAA homepage
NOAA's National Weather Service
Alaska Aviation Weather Unit
  NWS logo - Click to go to the NWS homepage
Left Navbar Graphic     03 AKDT = 11 GMT

   
NOAA is celebrating 200 years of science, service, and stewardship. Visit the NOAA 200th celebration Web site to learn more.
USA.gov is the U.S. Government's official Web portal to all Federal, state and local government Web resources and services.
Facebook
NWS on Facebook

AAWU Home :: Display TAF Add Bookmark
TAF CYSM 290544Z 2906/2918 13005KT P6SM SCT040 BKN070
     BECMG 2913/2915 BKN025
    FM291500 12005KT P6SM SCT015 BKN025 TEMPO 2916/2918 BKN015
    RMK NXT FCST BY 291200Z=

METAR CYSM 290500Z 13004KT 15SM SCT040 BKN070 03/M02 A2991 RMK SC3AC3 SLP143= METAR CYSM 290600Z 15006KT 15SM BKN040 BKN070 02/M02 A2992 RMK SC5AC2 SLP145= METAR CYSM 290700Z 14006KT 15SM SCT040 BKN070 02/M02 A2992 RMK SC4AC2 SLP145= METAR CYSM 290800Z 11003KT 15SM SCT040 BKN080 01/M02 A2991 RMK SC4AC1 SLP143= METAR CYSM 290900Z 13003KT 080V160 15SM SCT040 00/M02 A2991 RMK SC4 SLP143= METAR CYSM 291000Z 00000KT 15SM FEW040 SCT080 M01/M02 A2991 RMK SC2AC1 SLP143=
 Alaska TAF Map

NOAA's National Weather Service
Alaska Aviation Weather Unit
6930 Sand Lake Road
Anchorage, AK 99502-1845
Disclaimer
Credits
Glossary
Privacy Policy
About Us
Career Opportunities
Contact AAWU Internet Services Site last modified: April, 17th 2012